sensor_id;sensor_type;location;lat;lon;timestamp;pressure;altitude;pressure_sealevel;temperature;humidity
21658;BME280;10990;48.174;9.782;2022-11-15T00:01:14;92828.31;;;6.32;100.00
21658;BME280;10990;48.174;9.782;2022-11-15T00:04:01;92846.31;;;6.06;100.00
21658;BME280;10990;48.174;9.782;2022-11-15T00:06:46;92845.44;;;5.99;100.00
21658;BME280;10990;48.174;9.782;2022-11-15T00:09:31;92827.31;;;6.04;100.00
21658;BME280;10990;48.174;9.782;2022-11-15T00:12:17;92826.09;;;6.00;100.00
21658;BME280;10990;48.174;9.782;2022-11-15T00:15:03;92819.03;;;6.01;100.00
21658;BME280;10990;48.174;9.782;2022-11-15T00:17:50;92824.47;;;5.99;100.00
21658;BME280;10990;48.174;9.782;2022-11-15T00:20:35;92841.72;;;5.87;100.00
21658;BME280;10990;48.174;9.782;2022-11-15T00:23:21;92848.47;;;5.75;100.00
21658;BME280;10990;48.174;9.782;2022-11-15T00:26:07;92845.78;;;5.68;100.00
21658;BME280;10990;48.174;9.782;2022-11-15T00:28:53;92830.31;;;5.73;100.00
21658;BME280;10990;48.174;9.782;2022-11-15T00:31:38;92823.09;;;5.82;100.00
21658;BME280;10990;48.174;9.782;2022-11-15T00:34:25;92819.53;;;5.90;100.00
21658;BME280;10990;48.174;9.782;2022-11-15T00:37:10;92818.28;;;5.85;100.00
21658;BME280;10990;48.174;9.782;2022-11-15T00:39:55;92821.88;;;5.78;100.00
21658;BME280;10990;48.174;9.782;2022-11-15T00:42:41;92812.22;;;5.85;100.00
21658;BME280;10990;48.174;9.782;2022-11-15T00:45:26;92825.19;;;5.65;100.00
21658;BME280;10990;48.174;9.782;2022-11-15T00:48:11;92788.03;;;5.83;100.00
21658;BME280;10990;48.174;9.782;2022-11-15T00:50:58;92781.22;;;5.89;100.00
21658;BME280;10990;48.174;9.782;2022-11-15T00:53:43;92785.16;;;5.78;100.00
21658;BME280;10990;48.174;9.782;2022-11-15T00:56:29;92767.53;;;5.93;100.00
21658;BME280;10990;48.174;9.782;2022-11-15T00:59:14;92766.88;;;5.91;100.00
21658;BME280;10990;48.174;9.782;2022-11-15T01:01:59;92771.91;;;5.86;100.00
21658;BME280;10990;48.174;9.782;2022-11-15T01:04:45;92781.38;;;5.87;100.00
21658;BME280;10990;48.174;9.782;2022-11-15T01:07:32;92797.78;;;5.68;100.00
21658;BME280;10990;48.174;9.782;2022-11-15T01:10:17;92798.66;;;5.75;100.00
21658;BME280;10990;48.174;9.782;2022-11-15T01:13:02;92810.19;;;5.52;100.00
21658;BME280;10990;48.174;9.782;2022-11-15T01:15:48;92789.06;;;5.60;100.00
21658;BME280;10990;48.174;9.782;2022-11-15T01:18:33;92792.25;;;5.56;100.00
21658;BME280;10990;48.174;9.782;2022-11-15T01:21:19;92774.72;;;5.56;100.00
21658;BME280;10990;48.174;9.782;2022-11-15T01:24:07;92754.38;;;5.58;100.00
21658;BME280;10990;48.174;9.782;2022-11-15T01:26:53;92748.72;;;5.55;100.00
21658;BME280;10990;48.174;9.782;2022-11-15T01:29:38;92750.03;;;5.44;100.00
21658;BME280;10990;48.174;9.782;2022-11-15T01:32:23;92732.50;;;5.45;100.00
21658;BME280;10990;48.174;9.782;2022-11-15T01:35:09;92727.25;;;5.45;100.00
21658;BME280;10990;48.174;9.782;2022-11-15T01:37:54;92731.06;;;5.42;100.00
21658;BME280;10990;48.174;9.782;2022-11-15T01:40:41;92754.34;;;5.30;100.00
21658;BME280;10990;48.174;9.782;2022-11-15T01:43:29;92791.34;;;4.99;100.00
21658;BME280;10990;48.174;9.782;2022-11-15T01:46:23;92778.81;;;5.16;100.00
21658;BME280;10990;48.174;9.782;2022-11-15T01:49:13;92782.88;;;5.19;100.00
21658;BME280;10990;48.174;9.782;2022-11-15T01:52:01;92806.06;;;5.00;100.00
21658;BME280;10990;48.174;9.782;2022-11-15T01:54:48;92802.09;;;5.04;100.00
21658;BME280;10990;48.174;9.782;2022-11-15T01:57:37;92825.19;;;4.79;100.00
21658;BME280;10990;48.174;9.782;2022-11-15T02:00:23;92807.25;;;4.98;100.00
21658;BME280;10990;48.174;9.782;2022-11-15T02:03:08;92840.25;;;4.77;100.00
21658;BME280;10990;48.174;9.782;2022-11-15T02:05:54;92853.28;;;4.70;100.00
21658;BME280;10990;48.174;9.782;2022-11-15T02:08:39;92848.03;;;4.70;100.00
21658;BME280;10990;48.174;9.782;2022-11-15T02:11:25;92862.22;;;4.61;100.00
21658;BME280;10990;48.174;9.782;2022-11-15T02:14:12;92862.84;;;4.63;100.00
21658;BME280;10990;48.174;9.782;2022-11-15T02:17:02;92880.47;;;4.55;100.00
21658;BME280;10990;48.174;9.782;2022-11-15T02:23:21;92869.81;;;4.56;100.00
21658;BME280;10990;48.174;9.782;2022-11-15T02:26:48;92883.25;;;4.53;100.00
21658;BME280;10990;48.174;9.782;2022-11-15T02:29:55;92877.47;;;4.58;100.00
21658;BME280;10990;48.174;9.782;2022-11-15T02:32:49;92894.44;;;4.47;100.00
21658;BME280;10990;48.174;9.782;2022-11-15T02:35:43;92911.22;;;4.38;100.00
21658;BME280;10990;48.174;9.782;2022-11-15T02:38:37;92909.34;;;4.46;100.00
21658;BME280;10990;48.174;9.782;2022-11-15T02:41:32;92960.53;;;4.11;100.00
21658;BME280;10990;48.174;9.782;2022-11-15T02:44:24;92950.41;;;4.08;100.00
21658;BME280;10990;48.174;9.782;2022-11-15T02:47:13;92955.53;;;4.01;100.00
21658;BME280;10990;48.174;9.782;2022-11-15T02:50:06;92960.47;;;3.96;100.00
21658;BME280;10990;48.174;9.782;2022-11-15T02:52:53;92940.22;;;3.98;100.00
21658;BME280;10990;48.174;9.782;2022-11-15T02:55:41;92930.41;;;4.00;100.00
21658;BME280;10990;48.174;9.782;2022-11-15T02:58:53;92903.09;;;4.18;100.00
21658;BME280;10990;48.174;9.782;2022-11-15T03:01:54;92926.63;;;4.03;100.00
21658;BME280;10990;48.174;9.782;2022-11-15T03:04:44;92925.91;;;4.09;100.00
21658;BME280;10990;48.174;9.782;2022-11-15T03:07:36;92916.63;;;4.21;100.00
21658;BME280;10990;48.174;9.782;2022-11-15T03:10:29;92942.22;;;4.11;100.00
21658;BME280;10990;48.174;9.782;2022-11-15T03:13:24;92941.56;;;3.94;100.00
21658;BME280;10990;48.174;9.782;2022-11-15T03:16:15;92930.03;;;4.03;100.00
21658;BME280;10990;48.174;9.782;2022-11-15T03:19:06;92931.00;;;4.02;100.00
21658;BME280;10990;48.174;9.782;2022-11-15T03:21:55;92899.22;;;4.29;100.00
21658;BME280;10990;48.174;9.782;2022-11-15T03:24:45;92906.97;;;4.22;100.00
21658;BME280;10990;48.174;9.782;2022-11-15T03:27:35;92890.66;;;4.35;100.00
21658;BME280;10990;48.174;9.782;2022-11-15T03:30:23;92872.25;;;4.58;100.00
21658;BME280;10990;48.174;9.782;2022-11-15T03:33:08;92868.28;;;4.62;100.00
21658;BME280;10990;48.174;9.782;2022-11-15T03:35:55;92900.84;;;4.44;100.00
21658;BME280;10990;48.174;9.782;2022-11-15T03:38:41;92905.72;;;4.47;100.00
21658;BME280;10990;48.174;9.782;2022-11-15T03:41:35;92909.69;;;4.43;100.00
21658;BME280;10990;48.174;9.782;2022-11-15T03:44:31;92912.03;;;4.38;100.00
21658;BME280;10990;48.174;9.782;2022-11-15T03:47:22;92933.66;;;4.17;100.00
21658;BME280;10990;48.174;9.782;2022-11-15T03:50:12;92923.38;;;4.16;100.00
21658;BME280;10990;48.174;9.782;2022-11-15T03:52:58;92884.97;;;4.31;100.00
21658;BME280;10990;48.174;9.782;2022-11-15T03:55:44;92863.50;;;4.36;100.00
21658;BME280;10990;48.174;9.782;2022-11-15T03:58:30;92828.75;;;4.42;100.00
21658;BME280;10990;48.174;9.782;2022-11-15T04:01:16;92812.72;;;4.45;100.00
21658;BME280;10990;48.174;9.782;2022-11-15T04:04:01;92797.19;;;4.43;100.00
21658;BME280;10990;48.174;9.782;2022-11-15T04:06:47;92753.94;;;4.62;100.00
21658;BME280;10990;48.174;9.782;2022-11-15T04:09:32;92733.84;;;4.69;100.00
21658;BME280;10990;48.174;9.782;2022-11-15T04:12:39;92705.94;;;4.77;100.00
21658;BME280;10990;48.174;9.782;2022-11-15T04:15:28;92696.31;;;4.84;100.00
21658;BME280;10990;48.174;9.782;2022-11-15T04:18:14;92688.97;;;4.94;100.00
21658;BME280;10990;48.174;9.782;2022-11-15T04:20:59;92703.97;;;4.79;100.00
21658;BME280;10990;48.174;9.782;2022-11-15T04:24:03;92713.72;;;4.48;100.00
21658;BME280;10990;48.174;9.782;2022-11-15T04:26:57;92721.63;;;4.34;100.00
21658;BME280;10990;48.174;9.782;2022-11-15T04:29:42;92704.84;;;4.28;100.00
21658;BME280;10990;48.174;9.782;2022-11-15T04:32:29;92688.53;;;4.26;100.00
21658;BME280;10990;48.174;9.782;2022-11-15T04:35:15;92660.59;;;4.33;100.00
21658;BME280;10990;48.174;9.782;2022-11-15T04:38:01;92627.53;;;4.47;100.00
21658;BME280;10990;48.174;9.782;2022-11-15T04:40:47;92631.91;;;4.40;100.00
21658;BME280;10990;48.174;9.782;2022-11-15T04:43:32;92615.25;;;4.47;100.00
21658;BME280;10990;48.174;9.782;2022-11-15T04:46:18;92620.06;;;4.44;100.00
21658;BME280;10990;48.174;9.782;2022-11-15T04:49:04;92625.63;;;4.34;100.00
21658;BME280;10990;48.174;9.782;2022-11-15T04:51:50;92610.88;;;4.48;100.00
21658;BME280;10990;48.174;9.782;2022-11-15T04:54:35;92607.66;;;4.53;100.00
21658;BME280;10990;48.174;9.782;2022-11-15T04:57:21;92624.75;;;4.48;100.00
21658;BME280;10990;48.174;9.782;2022-11-15T05:00:08;92633.09;;;4.37;100.00
21658;BME280;10990;48.174;9.782;2022-11-15T05:02:54;92611.91;;;4.54;100.00
21658;BME280;10990;48.174;9.782;2022-11-15T05:05:59;92628.66;;;4.38;100.00
21658;BME280;10990;48.174;9.782;2022-11-15T05:08:44;92640.13;;;4.37;100.00
21658;BME280;10990;48.174;9.782;2022-11-15T05:11:30;92654.69;;;4.24;100.00
21658;BME280;10990;48.174;9.782;2022-11-15T05:14:15;92655.25;;;4.20;100.00
21658;BME280;10990;48.174;9.782;2022-11-15T05:17:00;92637.53;;;4.37;100.00
21658;BME280;10990;48.174;9.782;2022-11-15T05:19:45;92641.88;;;4.30;100.00
21658;BME280;10990;48.174;9.782;2022-11-15T05:22:32;92654.25;;;4.21;100.00
21658;BME280;10990;48.174;9.782;2022-11-15T05:25:17;92652.19;;;4.16;100.00
21658;BME280;10990;48.174;9.782;2022-11-15T05:28:03;92653.19;;;4.15;100.00
21658;BME280;10990;48.174;9.782;2022-11-15T05:30:48;92643.84;;;4.27;100.00
21658;BME280;10990;48.174;9.782;2022-11-15T05:33:35;92652.28;;;4.23;100.00
21658;BME280;10990;48.174;9.782;2022-11-15T05:36:27;92661.56;;;4.25;100.00
21658;BME280;10990;48.174;9.782;2022-11-15T05:39:15;92656.13;;;4.27;100.00
21658;BME280;10990;48.174;9.782;2022-11-15T05:42:04;92671.53;;;4.00;100.00
21658;BME280;10990;48.174;9.782;2022-11-15T05:44:51;92648.59;;;4.02;100.00
21658;BME280;10990;48.174;9.782;2022-11-15T05:47:38;92625.66;;;4.19;100.00
21658;BME280;10990;48.174;9.782;2022-11-15T05:50:24;92598.94;;;4.24;100.00
21658;BME280;10990;48.174;9.782;2022-11-15T05:53:10;92589.13;;;4.26;100.00
21658;BME280;10990;48.174;9.782;2022-11-15T05:55:59;92586.50;;;4.26;100.00
21658;BME280;10990;48.174;9.782;2022-11-15T05:58:44;92574.34;;;4.18;100.00
21658;BME280;10990;48.174;9.782;2022-11-15T06:01:30;92560.53;;;4.24;100.00
21658;BME280;10990;48.174;9.782;2022-11-15T06:04:15;92564.16;;;4.23;100.00
21658;BME280;10990;48.174;9.782;2022-11-15T06:07:01;92547.69;;;4.30;100.00
21658;BME280;10990;48.174;9.782;2022-11-15T06:09:47;92562.75;;;4.27;100.00
21658;BME280;10990;48.174;9.782;2022-11-15T06:12:34;92574.78;;;4.22;100.00
21658;BME280;10990;48.174;9.782;2022-11-15T06:15:19;92576.69;;;4.28;100.00
21658;BME280;10990;48.174;9.782;2022-11-15T06:18:05;92576.53;;;4.36;100.00
21658;BME280;10990;48.174;9.782;2022-11-15T06:20:51;92587.56;;;4.32;100.00
21658;BME280;10990;48.174;9.782;2022-11-15T06:23:37;92603.75;;;4.20;100.00
21658;BME280;10990;48.174;9.782;2022-11-15T06:26:22;92575.78;;;4.42;100.00
21658;BME280;10990;48.174;9.782;2022-11-15T06:29:09;92591.50;;;4.42;100.00
21658;BME280;10990;48.174;9.782;2022-11-15T06:31:54;92586.97;;;4.36;100.00
21658;BME280;10990;48.174;9.782;2022-11-15T06:34:40;92580.78;;;4.37;100.00
21658;BME280;10990;48.174;9.782;2022-11-15T06:37:25;92549.13;;;4.54;100.00
21658;BME280;10990;48.174;9.782;2022-11-15T06:40:11;92546.38;;;4.40;100.00
21658;BME280;10990;48.174;9.782;2022-11-15T06:42:59;92540.53;;;4.38;100.00
21658;BME280;10990;48.174;9.782;2022-11-15T06:45:46;92526.88;;;4.43;100.00
21658;BME280;10990;48.174;9.782;2022-11-15T06:48:32;92525.22;;;4.35;100.00
21658;BME280;10990;48.174;9.782;2022-11-15T06:51:18;92512.25;;;4.48;100.00
21658;BME280;10990;48.174;9.782;2022-11-15T06:54:04;92519.56;;;4.32;100.00
21658;BME280;10990;48.174;9.782;2022-11-15T06:56:50;92495.41;;;4.36;100.00
21658;BME280;10990;48.174;9.782;2022-11-15T06:59:35;92474.94;;;4.40;100.00
21658;BME280;10990;48.174;9.782;2022-11-15T07:02:22;92441.00;;;4.53;100.00
21658;BME280;10990;48.174;9.782;2022-11-15T07:05:08;92398.03;;;4.76;100.00
21658;BME280;10990;48.174;9.782;2022-11-15T07:07:53;92406.03;;;4.61;100.00
21658;BME280;10990;48.174;9.782;2022-11-15T07:10:39;92384.28;;;4.60;100.00
21658;BME280;10990;48.174;9.782;2022-11-15T07:13:25;92341.06;;;4.78;100.00
21658;BME280;10990;48.174;9.782;2022-11-15T07:16:11;92322.56;;;4.86;100.00
21658;BME280;10990;48.174;9.782;2022-11-15T07:18:58;92306.69;;;4.94;100.00
21658;BME280;10990;48.174;9.782;2022-11-15T07:21:43;92286.53;;;4.94;100.00
21658;BME280;10990;48.174;9.782;2022-11-15T07:24:29;92294.78;;;4.85;100.00
21658;BME280;10990;48.174;9.782;2022-11-15T07:27:14;92264.00;;;5.00;100.00
21658;BME280;10990;48.174;9.782;2022-11-15T07:30:00;92254.09;;;4.89;100.00
21658;BME280;10990;48.174;9.782;2022-11-15T07:32:45;92210.41;;;5.09;100.00
21658;BME280;10990;48.174;9.782;2022-11-15T07:35:32;92191.09;;;5.24;100.00
21658;BME280;10990;48.174;9.782;2022-11-15T07:38:17;92189.28;;;5.24;100.00
21658;BME280;10990;48.174;9.782;2022-11-15T07:41:05;92191.88;;;5.11;100.00
21658;BME280;10990;48.174;9.782;2022-11-15T07:43:51;92157.25;;;5.15;100.00
21658;BME280;10990;48.174;9.782;2022-11-15T07:46:36;92139.06;;;5.21;100.00
21658;BME280;10990;48.174;9.782;2022-11-15T07:49:21;92124.41;;;5.13;100.00
21658;BME280;10990;48.174;9.782;2022-11-15T07:52:08;92105.84;;;5.21;100.00
21658;BME280;10990;48.174;9.782;2022-11-15T07:54:54;92096.94;;;5.29;100.00
21658;BME280;10990;48.174;9.782;2022-11-15T07:57:39;92097.75;;;5.29;100.00
21658;BME280;10990;48.174;9.782;2022-11-15T08:00:24;92131.06;;;5.02;100.00
21658;BME280;10990;48.174;9.782;2022-11-15T08:03:11;92114.53;;;5.08;100.00
21658;BME280;10990;48.174;9.782;2022-11-15T08:05:57;92102.84;;;5.11;100.00
21658;BME280;10990;48.174;9.782;2022-11-15T08:08:44;92110.72;;;4.98;100.00
21658;BME280;10990;48.174;9.782;2022-11-15T08:11:29;92056.91;;;5.08;100.00
21658;BME280;10990;48.174;9.782;2022-11-15T08:14:14;92014.34;;;5.26;100.00
21658;BME280;10990;48.174;9.782;2022-11-15T08:17:00;91973.81;;;5.35;100.00
21658;BME280;10990;48.174;9.782;2022-11-15T08:19:45;91961.94;;;5.26;100.00
21658;BME280;10990;48.174;9.782;2022-11-15T08:22:30;91962.03;;;5.13;100.00
21658;BME280;10990;48.174;9.782;2022-11-15T08:25:17;91914.44;;;5.54;100.00
21658;BME280;10990;48.174;9.782;2022-11-15T08:28:04;91925.78;;;5.48;100.00
21658;BME280;10990;48.174;9.782;2022-11-15T08:30:52;91920.66;;;5.60;100.00
21658;BME280;10990;48.174;9.782;2022-11-15T08:33:37;91899.19;;;5.76;100.00
21658;BME280;10990;48.174;9.782;2022-11-15T08:36:23;91857.75;;;6.17;100.00
21658;BME280;10990;48.174;9.782;2022-11-15T08:39:10;91856.19;;;6.27;100.00
21658;BME280;10990;48.174;9.782;2022-11-15T08:41:57;91901.41;;;6.04;100.00
21658;BME280;10990;48.174;9.782;2022-11-15T08:44:43;91836.31;;;6.75;100.00
21658;BME280;10990;48.174;9.782;2022-11-15T08:47:28;91864.81;;;6.71;100.00
21658;BME280;10990;48.174;9.782;2022-11-15T08:50:15;91840.94;;;7.10;100.00
21658;BME280;10990;48.174;9.782;2022-11-15T08:53:05;91862.69;;;7.29;100.00
21658;BME280;10990;48.174;9.782;2022-11-15T08:55:50;91826.25;;;7.98;100.00
21658;BME280;10990;48.174;9.782;2022-11-15T08:58:37;91904.25;;;7.92;100.00
21658;BME280;10990;48.174;9.782;2022-11-15T09:01:23;92008.91;;;7.41;100.00
21658;BME280;10990;48.174;9.782;2022-11-15T09:04:08;92055.13;;;7.49;100.00
21658;BME280;10990;48.174;9.782;2022-11-15T09:06:53;92060.59;;;7.66;100.00
21658;BME280;10990;48.174;9.782;2022-11-15T09:09:39;92074.81;;;7.77;100.00
21658;BME280;10990;48.174;9.782;2022-11-15T09:12:24;92102.44;;;7.86;100.00
21658;BME280;10990;48.174;9.782;2022-11-15T09:15:12;92077.50;;;8.37;100.00
21658;BME280;10990;48.174;9.782;2022-11-15T09:17:58;92003.56;;;9.85;100.00
21658;BME280;10990;48.174;9.782;2022-11-15T09:20:43;92051.25;;;10.98;100.00
21658;BME280;10990;48.174;9.782;2022-11-15T09:23:28;92176.28;;;11.27;100.00
21658;BME280;10990;48.174;9.782;2022-11-15T09:26:14;92321.75;;;11.56;100.00
21658;BME280;10990;48.174;9.782;2022-11-15T09:28:59;92298.03;;;13.28;100.00
21658;BME280;10990;48.174;9.782;2022-11-15T09:31:46;92536.78;;;13.40;100.00
21658;BME280;10990;48.174;9.782;2022-11-15T09:34:32;92758.69;;;13.12;100.00
21658;BME280;10990;48.174;9.782;2022-11-15T09:37:17;92773.31;;;13.27;100.00
21658;BME280;10990;48.174;9.782;2022-11-15T09:40:03;91818.97;;;12.52;100.00
21658;BME280;10990;48.174;9.782;2022-11-15T09:43:00;92002.84;;;12.46;100.00
21658;BME280;10990;48.174;9.782;2022-11-15T09:45:58;92248.81;;;10.74;100.00
21658;BME280;10990;48.174;9.782;2022-11-15T09:48:54;92283.09;;;10.10;100.00
21658;BME280;10990;48.174;9.782;2022-11-15T09:51:56;92095.59;;;12.24;100.00
21658;BME280;10990;48.174;9.782;2022-11-15T09:54:28;92109.75;;;14.28;100.00
21658;BME280;10990;48.174;9.782;2022-11-15T09:57:03;92383.66;;;14.81;100.00
21658;BME280;10990;48.174;9.782;2022-11-15T09:59:55;92671.94;;;13.75;100.00
21658;BME280;10990;48.174;9.782;2022-11-15T10:02:40;92769.84;;;14.95;100.00
21658;BME280;10990;48.174;9.782;2022-11-15T10:05:18;92903.66;;;15.95;100.00
21658;BME280;10990;48.174;9.782;2022-11-15T10:07:50;93066.63;;;16.04;100.00
21658;BME280;10990;48.174;9.782;2022-11-15T10:10:25;93179.19;;;16.06;100.00
21658;BME280;10990;48.174;9.782;2022-11-15T10:12:54;93209.63;;;17.59;100.00
21658;BME280;10990;48.174;9.782;2022-11-15T10:15:22;93332.19;;;17.72;100.00
21658;BME280;10990;48.174;9.782;2022-11-15T10:18:07;93446.59;;;17.53;100.00
21658;BME280;10990;48.174;9.782;2022-11-15T10:20:44;93603.91;;;16.99;100.00
21658;BME280;10990;48.174;9.782;2022-11-15T10:23:15;93634.69;;;17.01;100.00
21658;BME280;10990;48.174;9.782;2022-11-15T10:25:42;93664.47;;;17.56;100.00
21658;BME280;10990;48.174;9.782;2022-11-15T10:28:14;93762.13;;;17.75;100.00
21658;BME280;10990;48.174;9.782;2022-11-15T10:30:43;93842.59;;;16.51;100.00
21658;BME280;10990;48.174;9.782;2022-11-15T10:33:18;93862.53;;;14.16;100.00
21658;BME280;10990;48.174;9.782;2022-11-15T10:35:48;93702.47;;;13.32;100.00
21658;BME280;10990;48.174;9.782;2022-11-15T10:38:15;93613.91;;;12.11;100.00
21658;BME280;10990;48.174;9.782;2022-11-15T10:40:41;93479.75;;;12.48;100.00
21658;BME280;10990;48.174;9.782;2022-11-15T10:43:15;93433.00;;;12.29;100.00
21658;BME280;10990;48.174;9.782;2022-11-15T10:45:42;93370.03;;;12.49;100.00
21658;BME280;10990;48.174;9.782;2022-11-15T10:48:22;93380.81;;;11.98;100.00
21658;BME280;10990;48.174;9.782;2022-11-15T10:50:51;93318.22;;;12.28;100.00
21658;BME280;10990;48.174;9.782;2022-11-15T10:53:27;93307.66;;;12.22;100.00
21658;BME280;10990;48.174;9.782;2022-11-15T10:55:58;93280.09;;;12.04;100.00
21658;BME280;10990;48.174;9.782;2022-11-15T10:58:38;93261.56;;;12.04;100.00
21658;BME280;10990;48.174;9.782;2022-11-15T11:01:14;93215.81;;;12.16;100.00
21658;BME280;10990;48.174;9.782;2022-11-15T11:03:43;93260.22;;;11.95;100.00
21658;BME280;10990;48.174;9.782;2022-11-15T11:06:13;93240.63;;;11.96;100.00
21658;BME280;10990;48.174;9.782;2022-11-15T11:08:52;93231.19;;;12.07;100.00
21658;BME280;10990;48.174;9.782;2022-11-15T11:11:19;93209.56;;;12.28;100.00
21658;BME280;10990;48.174;9.782;2022-11-15T11:13:46;93221.25;;;12.21;100.00
21658;BME280;10990;48.174;9.782;2022-11-15T11:16:23;93196.75;;;12.25;100.00
21658;BME280;10990;48.174;9.782;2022-11-15T11:19:00;93226.91;;;12.06;100.00
21658;BME280;10990;48.174;9.782;2022-11-15T11:21:40;93241.94;;;11.87;100.00
21658;BME280;10990;48.174;9.782;2022-11-15T11:24:14;93243.28;;;11.96;100.00
21658;BME280;10990;48.174;9.782;2022-11-15T11:27:00;93261.09;;;11.82;100.00
21658;BME280;10990;48.174;9.782;2022-11-15T11:29:40;93259.38;;;11.70;100.00
21658;BME280;10990;48.174;9.782;2022-11-15T11:32:22;93227.78;;;11.75;100.00
21658;BME280;10990;48.174;9.782;2022-11-15T11:34:58;93187.38;;;12.04;100.00
21658;BME280;10990;48.174;9.782;2022-11-15T11:37:35;93168.94;;;12.34;100.00
21658;BME280;10990;48.174;9.782;2022-11-15T11:40:16;93197.78;;;12.24;100.00
21658;BME280;10990;48.174;9.782;2022-11-15T11:42:52;93190.34;;;12.33;100.00
21658;BME280;10990;48.174;9.782;2022-11-15T11:45:36;93205.59;;;12.19;100.00
21658;BME280;10990;48.174;9.782;2022-11-15T11:48:12;93146.03;;;12.40;100.00
21658;BME280;10990;48.174;9.782;2022-11-15T11:50:41;93131.47;;;12.31;100.00
21658;BME280;10990;48.174;9.782;2022-11-15T11:53:14;93114.56;;;12.44;100.00
21658;BME280;10990;48.174;9.782;2022-11-15T11:55:45;93117.72;;;12.04;100.00
21658;BME280;10990;48.174;9.782;2022-11-15T11:58:17;93083.66;;;11.89;100.00
21658;BME280;10990;48.174;9.782;2022-11-15T12:00:49;93063.75;;;11.61;100.00
21658;BME280;10990;48.174;9.782;2022-11-15T12:03:22;92986.03;;;11.93;100.00
21658;BME280;10990;48.174;9.782;2022-11-15T12:05:54;92969.47;;;11.79;100.00
21658;BME280;10990;48.174;9.782;2022-11-15T12:08:31;92912.78;;;11.68;100.00
21658;BME280;10990;48.174;9.782;2022-11-15T12:11:06;92857.44;;;11.78;100.00
21658;BME280;10990;48.174;9.782;2022-11-15T12:13:34;92804.00;;;12.00;100.00
21658;BME280;10990;48.174;9.782;2022-11-15T12:16:08;92791.34;;;12.14;100.00
21658;BME280;10990;48.174;9.782;2022-11-15T12:18:37;92830.38;;;12.18;100.00
21658;BME280;10990;48.174;9.782;2022-11-15T12:21:07;92864.03;;;12.18;100.00
21658;BME280;10990;48.174;9.782;2022-11-15T12:23:41;92883.03;;;12.15;100.00
21658;BME280;10990;48.174;9.782;2022-11-15T12:26:14;92895.34;;;12.21;100.00
21658;BME280;10990;48.174;9.782;2022-11-15T12:28:47;92897.34;;;12.37;100.00
21658;BME280;10990;48.174;9.782;2022-11-15T12:31:18;92938.56;;;12.21;100.00
21658;BME280;10990;48.174;9.782;2022-11-15T12:33:48;92940.09;;;12.41;100.00
21658;BME280;10990;48.174;9.782;2022-11-15T12:36:33;92955.19;;;12.40;100.00
21658;BME280;10990;48.174;9.782;2022-11-15T12:39:03;92969.19;;;12.47;100.00
21658;BME280;10990;48.174;9.782;2022-11-15T12:41:32;92994.50;;;12.43;100.00
21658;BME280;10990;48.174;9.782;2022-11-15T12:43:59;92985.50;;;12.44;100.00
21658;BME280;10990;48.174;9.782;2022-11-15T12:47:01;92962.03;;;12.60;100.00
21658;BME280;10990;48.174;9.782;2022-11-15T12:49:47;92963.56;;;12.67;100.00
21658;BME280;10990;48.174;9.782;2022-11-15T12:52:14;92976.56;;;12.57;100.00
21658;BME280;10990;48.174;9.782;2022-11-15T12:55:01;92957.31;;;12.62;100.00
21658;BME280;10990;48.174;9.782;2022-11-15T12:57:37;92945.81;;;12.68;100.00
21658;BME280;10990;48.174;9.782;2022-11-15T13:03:17;92871.78;;;12.66;100.00
21658;BME280;10990;48.174;9.782;2022-11-15T13:06:04;92836.63;;;12.71;100.00
21658;BME280;10990;48.174;9.782;2022-11-15T13:08:40;92819.00;;;12.65;100.00
21658;BME280;10990;48.174;9.782;2022-11-15T13:14:46;92838.25;;;12.60;100.00
21658;BME280;10990;48.174;9.782;2022-11-15T13:17:24;92838.03;;;12.62;100.00
21658;BME280;10990;48.174;9.782;2022-11-15T13:19:58;92847.69;;;12.56;100.00
21658;BME280;10990;48.174;9.782;2022-11-15T13:22:25;92844.94;;;12.63;100.00
21658;BME280;10990;48.174;9.782;2022-11-15T13:25:19;92864.75;;;12.60;100.00
21658;BME280;10990;48.174;9.782;2022-11-15T13:27:49;92861.50;;;12.58;100.00
21658;BME280;10990;48.174;9.782;2022-11-15T13:30:22;92862.22;;;12.53;100.00
21658;BME280;10990;48.174;9.782;2022-11-15T13:32:50;92856.00;;;12.60;100.00
21658;BME280;10990;48.174;9.782;2022-11-15T13:35:21;92853.34;;;12.48;100.00
21658;BME280;10990;48.174;9.782;2022-11-15T13:37:48;92829.16;;;12.56;100.00
21658;BME280;10990;48.174;9.782;2022-11-15T13:40:20;92817.34;;;12.64;100.00
21658;BME280;10990;48.174;9.782;2022-11-15T13:42:47;92827.41;;;12.73;100.00
21658;BME280;10990;48.174;9.782;2022-11-15T13:45:16;92856.56;;;12.62;100.00
21658;BME280;10990;48.174;9.782;2022-11-15T13:47:51;92853.09;;;12.49;100.00
21658;BME280;10990;48.174;9.782;2022-11-15T13:50:21;92845.16;;;12.38;100.00
21658;BME280;10990;48.174;9.782;2022-11-15T13:52:48;92825.00;;;12.37;100.00
21658;BME280;10990;48.174;9.782;2022-11-15T13:55:18;92810.81;;;12.31;100.00
21658;BME280;10990;48.174;9.782;2022-11-15T13:57:48;92791.34;;;12.25;100.00
21658;BME280;10990;48.174;9.782;2022-11-15T14:00:27;92759.56;;;12.14;100.00
21658;BME280;10990;48.174;9.782;2022-11-15T14:02:57;92728.22;;;12.10;100.00
21658;BME280;10990;48.174;9.782;2022-11-15T14:05:31;92695.63;;;12.10;100.00
21658;BME280;10990;48.174;9.782;2022-11-15T14:08:00;92682.16;;;12.00;100.00
21658;BME280;10990;48.174;9.782;2022-11-15T14:10:30;92662.13;;;12.04;100.00
21658;BME280;10990;48.174;9.782;2022-11-15T14:12:58;92648.75;;;11.99;100.00
21658;BME280;10990;48.174;9.782;2022-11-15T14:15:28;92635.41;;;11.94;100.00
21658;BME280;10990;48.174;9.782;2022-11-15T14:17:58;92627.47;;;11.94;100.00
21658;BME280;10990;48.174;9.782;2022-11-15T14:20:35;92608.47;;;11.97;100.00
21658;BME280;10990;48.174;9.782;2022-11-15T14:23:05;92599.50;;;11.98;100.00
21658;BME280;10990;48.174;9.782;2022-11-15T14:25:33;92599.25;;;11.99;100.00
21658;BME280;10990;48.174;9.782;2022-11-15T14:28:29;92595.69;;;11.94;100.00
21658;BME280;10990;48.174;9.782;2022-11-15T14:30:57;92585.81;;;11.89;100.00